Time;durP1;ratioP1;P1;durP2;ratioP2;P2;SDS_P1;SDS_P2;PMS_P1;PMS_P2;Temp;Humidity;BMP_temperature;BMP_pressure;BME280_temperature;BME280_humidity;BME280_pressure;Samples;Min_cycle;Max_cycle;Signal;HPM_P1;HPM_P2
2021/04/11 00:02:20;;;;;;;11.27;6.63;;;9.40;99.90;;;;;;4957755;28;20551;-78
2021/04/11 00:04:46;;;;;;;10.40;5.93;;;9.40;99.90;;;;;;4957584;28;20596;-78
2021/04/11 00:07:11;;;;;;;7.20;6.40;;;9.50;99.90;;;;;;4973904;28;20194;-78
2021/04/11 00:09:37;;;;;;;7.60;5.70;;;;;;;;;;4963934;28;20180;-80
2021/04/11 00:12:04;;;;;;;6.50;5.73;;;;;;;;;;4963609;28;20186;-80
2021/04/11 00:14:31;;;;;;;7.63;6.00;;;;;;;;;;4963640;28;20268;-79
2021/04/11 00:16:57;;;;;;;8.00;5.80;;;9.50;99.90;;;;;;4963429;28;20236;-79
2021/04/11 00:19:22;;;;;;;7.73;6.07;;;9.60;99.90;;;;;;4979309;28;20177;-79
2021/04/11 00:21:48;;;;;;;6.40;5.10;;;9.60;99.90;;;;;;4978109;28;20182;-79
2021/04/11 00:24:14;;;;;;;8.43;5.37;;;9.50;99.90;;;;;;4978342;28;20210;-80
2021/04/11 00:26:39;;;;;;;8.37;5.87;;;9.60;99.90;;;;;;4962587;28;20205;-80
2021/04/11 00:29:05;;;;;;;7.33;5.13;;;9.40;99.90;;;;;;4961817;28;20272;-79
2021/04/11 00:31:31;;;;;;;6.73;5.20;;;9.50;99.90;;;;;;4978066;28;20180;-79
2021/04/11 00:33:57;;;;;;;8.43;5.60;;;;;;;;;;4961913;28;20209;-79
2021/04/11 00:36:22;;;;;;;8.80;5.77;;;9.30;99.90;;;;;;4961562;28;20236;-79
2021/04/11 00:38:48;;;;;;;9.77;5.67;;;9.50;99.90;;;;;;4961279;28;20184;-79
2021/04/11 00:41:32;;;;;;;7.27;5.27;;;9.50;99.90;;;;;;4977632;28;20186;-79
2021/04/11 00:43:58;;;;;;;7.60;5.73;;;9.50;99.90;;;;;;4962049;28;20653;-80
2021/04/11 00:46:44;;;;;;;9.43;5.43;;;9.50;99.90;;;;;;4977872;28;20231;-79
2021/04/11 00:49:29;;;;;;;7.30;5.67;;;9.50;99.90;;;;;;4977628;28;20194;-80
2021/04/11 00:51:55;;;;;;;10.67;6.07;;;9.40;99.90;;;;;;4978353;28;20255;-80
2021/04/11 00:54:21;;;;;;;8.40;5.37;;;;;;;;;;4977740;28;20217;-79
2021/04/11 00:56:47;;;;;;;7.23;5.80;;;9.50;99.90;;;;;;4961817;28;20207;-79
2021/04/11 00:59:12;;;;;;;9.03;6.00;;;9.40;99.90;;;;;;4961314;28;20177;-79
2021/04/11 01:01:38;;;;;;;7.73;5.40;;;9.30;99.90;;;;;;4977638;28;20184;-79
2021/04/11 01:04:11;;;;;;;6.73;5.87;;;9.20;99.90;;;;;;4977826;28;20230;-79
2021/04/11 01:06:41;;;;;;;7.73;5.80;;;;;;;;;;4977710;28;20232;-79
2021/04/11 01:09:31;;;;;;;8.30;5.33;;;;;;;;;;4961166;28;20180;-79
2021/04/11 01:11:58;;;;;;;7.37;5.30;;;;;;;;;;4974963;28;20197;-80
2021/04/11 01:14:25;;;;;;;9.27;5.37;;;;;;;;;;4978357;28;20265;-79
2021/04/11 01:16:51;;;;;;;6.13;5.37;;;;;;;;;;4977342;28;20199;-79
2021/04/11 01:19:21;;;;;;;8.17;5.57;;;;;;;;;;4975990;28;20174;-78
2021/04/11 01:22:05;;;;;;;8.10;4.90;;;9.40;99.90;;;;;;4960931;28;20187;-80
2021/04/11 01:24:37;;;;;;;9.27;5.40;;;9.40;99.90;;;;;;4977203;28;20545;-79
2021/04/11 01:27:05;;;;;;;10.03;5.43;;;9.30;99.90;;;;;;4977102;28;20300;-79
2021/04/11 01:29:30;;;;;;;9.90;5.30;;;9.40;99.90;;;;;;4977213;28;20186;-79
2021/04/11 01:31:56;;;;;;;6.80;4.73;;;9.40;99.90;;;;;;4977094;28;20185;-79
2021/04/11 01:34:21;;;;;;;7.47;5.87;;;9.30;99.90;;;;;;4976749;28;20208;-79
2021/04/11 01:36:50;;;;;;;8.00;5.10;;;9.30;99.90;;;;;;4977117;28;20672;-79
2021/04/11 01:39:22;;;;;;;7.43;5.60;;;9.30;99.90;;;;;;4977064;28;20186;-79
2021/04/11 01:41:48;;;;;;;7.87;5.53;;;9.30;99.90;;;;;;4976661;28;20177;-79
2021/04/11 01:44:19;;;;;;;8.83;5.57;;;9.20;99.90;;;;;;4976873;28;20550;-79
2021/04/11 01:46:44;;;;;;;8.00;5.90;;;9.30;99.90;;;;;;4976683;28;20675;-79
2021/04/11 01:49:10;;;;;;;7.40;5.57;;;9.30;99.90;;;;;;4976718;28;20297;-79
2021/04/11 01:51:42;;;;;;;6.50;5.77;;;9.20;99.90;;;;;;4976875;28;20531;-79
2021/04/11 01:54:09;;;;;;;7.57;5.73;;;9.20;99.90;;;;;;4976540;28;20235;-79
2021/04/11 01:56:34;;;;;;;8.33;5.53;;;9.30;99.90;;;;;;4976566;28;20203;-79
2021/04/11 01:59:00;;;;;;;6.43;5.23;;;9.30;99.90;;;;;;4976508;28;20557;-79
2021/04/11 02:01:32;;;;;;;7.37;5.77;;;9.30;99.90;;;;;;4977053;28;20177;-79
2021/04/11 02:04:01;;;;;;;8.50;5.57;;;9.30;99.90;;;;;;4976927;28;20269;-79
2021/04/11 02:06:27;;;;;;;6.53;5.80;;;9.20;99.90;;;;;;5002984;23;20229;-80
2021/04/11 02:08:56;;;;;;;8.37;5.50;;;9.30;99.90;;;;;;4993064;28;20639;-80
2021/04/11 02:11:21;;;;;;;7.20;5.40;;;9.50;99.90;;;;;;4976663;28;20262;-80
2021/04/11 02:13:47;;;;;;;7.13;5.60;;;9.30;99.90;;;;;;4992810;28;20303;-77
2021/04/11 02:16:14;;;;;;;6.90;5.13;;;9.40;99.90;;;;;;4992849;28;20283;-77
2021/04/11 02:18:40;;;;;;;7.03;5.70;;;9.30;99.90;;;;;;4976857;28;20606;-77
2021/04/11 02:21:11;;;;;;;8.13;5.90;;;9.50;99.90;;;;;;4960294;28;20196;-77
2021/04/11 02:23:36;;;;;;;7.60;5.57;;;9.40;99.90;;;;;;4976995;28;20176;-78
2021/04/11 02:26:02;;;;;;;8.87;5.30;;;9.40;99.90;;;;;;4960244;28;20215;-77
2021/04/11 02:28:30;;;;;;;5.73;5.13;;;9.40;99.90;;;;;;4960519;28;20188;-77
2021/04/11 02:31:16;;;;;;;6.80;5.33;;;9.40;99.90;;;;;;4976204;28;20185;-77
2021/04/11 02:33:53;;;;;;;7.93;5.97;;;9.40;99.90;;;;;;4969764;28;20205;-77
2021/04/11 02:36:19;;;;;;;8.53;5.60;;;9.40;99.90;;;;;;4976162;28;20548;-76
2021/04/11 02:38:46;;;;;;;6.03;5.17;;;9.40;99.90;;;;;;4976428;28;20169;-76
2021/04/11 02:41:12;;;;;;;7.47;5.60;;;9.40;99.90;;;;;;4974860;28;20259;-77
2021/04/11 02:43:38;;;;;;;6.53;5.43;;;9.50;99.90;;;;;;4976235;28;20278;-77
2021/04/11 02:46:04;;;;;;;6.20;5.53;;;9.50;99.90;;;;;;4976373;28;20205;-77
2021/04/11 02:48:29;;;;;;;8.03;5.57;;;9.40;99.90;;;;;;4976193;28;20236;-76
2021/04/11 02:50:55;;;;;;;8.57;6.00;;;9.40;99.90;;;;;;4976182;28;20185;-77
2021/04/11 02:53:22;;;;;;;9.00;5.87;;;9.50;99.90;;;;;;4975849;28;20212;-77
2021/04/11 02:55:48;;;;;;;6.50;5.00;;;9.50;99.90;;;;;;4960109;28;20176;-77
2021/04/11 02:58:15;;;;;;;6.50;5.40;;;9.40;99.90;;;;;;4975920;28;20192;-77
2021/04/11 03:00:54;;;;;;;7.63;5.60;;;9.40;99.90;;;;;;4976009;28;20176;-77
2021/04/11 03:03:20;;;;;;;6.23;5.00;;;9.40;99.90;;;;;;4956173;28;20668;-77
2021/04/11 03:05:46;;;;;;;7.43;5.40;;;9.40;99.90;;;;;;4972518;28;20185;-77
2021/04/11 03:08:13;;;;;;;7.43;5.50;;;9.40;99.90;;;;;;4972553;28;20184;-77
2021/04/11 03:11:05;;;;;;;7.37;5.77;;;9.40;99.90;;;;;;4972907;28;20272;-77
2021/04/11 03:13:32;;;;;;;8.10;6.07;;;9.40;99.90;;;;;;4958584;28;20206;-77
2021/04/11 03:15:57;;;;;;;8.00;6.13;;;9.40;99.90;;;;;;4972352;28;20186;-77
2021/04/11 03:18:24;;;;;;;8.40;5.67;;;9.40;99.90;;;;;;4972373;28;20183;-77
2021/04/11 03:20:49;;;;;;;7.53;6.07;;;9.40;99.90;;;;;;4972445;28;20207;-77
2021/04/11 03:23:15;;;;;;;10.20;6.40;;;9.50;99.90;;;;;;4955969;28;20193;-76
2021/04/11 03:25:40;;;;;;;8.37;6.70;;;9.50;99.90;;;;;;4972288;28;20687;-77
2021/04/11 03:28:10;;;;;;;8.53;6.30;;;9.50;99.90;;;;;;4972173;28;20201;-77
2021/04/11 03:30:40;;;;;;;7.70;6.90;;;9.50;99.90;;;;;;4985264;28;20785;-77
2021/04/11 03:33:09;;;;;;;8.97;7.00;;;9.50;99.90;;;;;;4975669;28;20671;-77
2021/04/11 03:35:36;;;;;;;10.07;7.23;;;9.40;99.90;;;;;;4975510;28;20185;-76
2021/04/11 03:38:02;;;;;;;10.53;9.10;;;9.40;99.90;;;;;;4959299;28;20200;-77
2021/04/11 03:40:30;;;;;;;13.57;11.53;;;9.50;99.90;;;;;;4975536;28;20459;-77
2021/04/11 03:43:16;;;;;;;14.70;12.20;;;9.40;99.90;;;;;;4974532;28;20644;-77
2021/04/11 03:45:41;;;;;;;14.57;12.53;;;9.30;99.90;;;;;;4991450;28;20195;-77
2021/04/11 03:48:25;;;;;;;14.37;12.50;;;9.10;99.90;;;;;;4974713;28;20195;-77
2021/04/11 03:50:55;;;;;;;15.10;11.77;;;9.10;99.90;;;;;;4975034;28;20191;-77
2021/04/11 03:53:25;;;;;;;13.87;12.03;;;9.00;99.90;;;;;;4991219;28;20236;-77
2021/04/11 03:55:50;;;;;;;13.10;11.70;;;8.80;99.90;;;;;;4991377;28;20177;-78
2021/04/11 03:58:29;;;;;;;14.70;12.10;;;8.80;99.90;;;;;;4991200;28;20653;-76
2021/04/11 04:00:58;;;;;;;15.30;12.43;;;8.70;99.90;;;;;;4975153;28;20661;-77
2021/04/11 04:03:25;;;;;;;16.33;13.30;;;8.60;99.90;;;;;;4974690;28;20200;-77
2021/04/11 04:05:50;;;;;;;15.63;12.53;;;8.60;99.90;;;;;;4975002;28;20635;-77
2021/04/11 04:08:16;;;;;;;13.03;10.93;;;8.40;99.90;;;;;;4958886;28;20243;-77
2021/04/11 04:11:03;;;;;;;14.17;11.60;;;8.50;99.90;;;;;;4975071;28;20200;-77
2021/04/11 04:13:50;;;;;;;12.57;11.27;;;8.40;99.90;;;;;;4967070;28;20255;-77
2021/04/11 04:16:46;;;;;;;12.23;10.70;;;8.40;99.90;;;;;;4991033;28;20196;-77
2021/04/11 04:19:34;;;;;;;12.27;10.77;;;8.40;99.90;;;;;;4992326;28;20180;-77
2021/04/11 04:22:18;;;;;;;12.30;10.23;;;8.40;99.90;;;;;;4976688;28;20683;-77
2021/04/11 04:25:22;;;;;;;11.60;10.37;;;8.20;99.90;;;;;;4991190;28;20680;-78
2021/04/11 04:28:02;;;;;;;10.47;9.37;;;8.10;99.90;;;;;;4984122;28;20211;-77
2021/04/11 04:30:32;;;;;;;9.03;7.83;;;7.90;99.90;;;;;;4975011;28;20674;-78
2021/04/11 04:33:17;;;;;;;7.97;7.17;;;7.80;99.90;;;;;;4990797;28;20215;-77
2021/04/11 04:35:54;;;;;;;7.43;6.43;;;7.70;99.90;;;;;;4974660;28;20663;-77
2021/04/11 04:38:32;;;;;;;8.20;6.33;;;7.70;99.90;;;;;;4974792;28;20195;-78
2021/04/11 04:41:03;;;;;;;7.63;6.67;;;7.60;99.90;;;;;;4991083;28;20176;-77
2021/04/11 04:43:42;;;;;;;7.60;6.80;;;7.40;99.90;;;;;;4975062;28;20233;-77
2021/04/11 04:46:17;;;;;;;7.83;6.83;;;5.80;99.90;;;;;;4991065;28;20280;-78
2021/04/11 04:48:51;;;;;;;7.63;5.90;;;7.40;99.90;;;;;;4990906;28;20180;-77
2021/04/11 04:51:37;;;;;;;6.43;5.77;;;7.40;99.90;;;;;;4974870;28;20239;-77
2021/04/11 04:54:17;;;;;;;6.40;5.70;;;7.40;99.90;;;;;;4992401;28;20226;-77
2021/04/11 04:56:48;;;;;;;5.37;4.80;;;7.20;99.90;;;;;;4978056;28;20297;-78
2021/04/11 04:59:16;;;;;;;5.60;5.00;;;7.30;99.90;;;;;;4994519;28;20187;-78
2021/04/11 05:02:02;;;;;;;5.70;5.10;;;7.90;99.90;;;;;;4994303;28;20666;-78
2021/04/11 05:04:29;;;;;;;7.30;5.23;;;7.10;99.90;;;;;;4978212;28;20210;-78
2021/04/11 05:07:07;;;;;;;5.47;4.97;;;7.10;99.90;;;;;;4977883;28;20227;-77
2021/04/11 05:09:43;;;;;;;5.77;5.17;;;7.00;99.90;;;;;;4978011;28;20184;-77
2021/04/11 05:12:40;;;;;;;5.30;4.80;;;7.00;99.90;;;;;;4977903;28;20184;-78
2021/04/11 05:15:25;;;;;;;5.10;4.50;;;7.00;99.90;;;;;;4994181;28;20198;-77
2021/04/11 05:17:55;;;;;;;6.20;4.83;;;7.00;99.90;;;;;;4977794;28;20320;-78
2021/04/11 05:20:24;;;;;;;4.67;4.27;;;7.00;99.90;;;;;;4994396;28;20545;-80
2021/04/11 05:23:03;;;;;;;5.23;4.73;;;7.00;99.90;;;;;;4977573;28;20186;-80
2021/04/11 05:25:52;;;;;;;5.37;4.83;;;7.00;99.90;;;;;;4994251;28;20670;-80
2021/04/11 05:28:41;;;;;;;4.90;4.40;;;6.90;99.90;;;;;;4977847;28;20829;-80
2021/04/11 05:31:11;;;;;;;5.20;4.63;;;7.00;99.90;;;;;;4995418;28;20182;-80
2021/04/11 05:33:36;;;;;;;4.03;3.60;;;7.00;99.90;;;;;;4977723;28;20202;-80
2021/04/11 05:36:37;;;;;;;3.40;3.10;;;6.80;99.90;;;;;;4993922;28;20203;-80
2021/04/11 05:39:24;;;;;;;3.10;2.80;;;6.80;99.90;;;;;;4989553;28;20187;-80
2021/04/11 05:41:59;;;;;;;3.40;3.10;;;6.70;99.90;;;;;;4977624;28;20183;-81
2021/04/11 05:44:27;;;;;;;3.40;3.10;;;6.60;99.90;;;;;;4977102;28;20184;-81
2021/04/11 05:47:10;;;;;;;3.90;3.43;;;6.60;99.90;;;;;;4977617;28;20210;-81
2021/04/11 05:49:48;;;;;;;4.00;3.70;;;6.40;99.90;;;;;;4993749;28;20677;-81
2021/04/11 05:52:17;;;;;;;4.07;3.67;;;6.30;99.90;;;;;;4962511;28;20647;-81
2021/04/11 05:54:48;;;;;;;4.50;4.10;;;6.00;99.90;;;;;;4961386;28;20208;-81
2021/04/11 05:57:18;;;;;;;4.07;3.77;;;6.20;99.90;;;;;;4977677;28;20225;-80
2021/04/11 05:59:45;;;;;;;4.30;3.90;;;;;;;;;;4961314;28;20263;-80
2021/04/11 06:02:40;;;;;;;4.33;3.93;;;5.70;99.90;;;;;;4992884;28;20207;-81
2021/04/11 06:05:09;;;;;;;4.47;4.07;;;5.80;99.90;;;;;;4988549;28;20651;-80
2021/04/11 06:07:58;;;;;;;4.73;4.33;;;6.10;99.90;;;;;;4974030;28;20223;-81
2021/04/11 06:10:29;;;;;;;7.57;4.93;;;6.20;99.90;;;;;;4991688;28;20175;-80
2021/04/11 06:13:06;;;;;;;5.40;4.70;;;;;;;;;;4952897;28;20199;-80
2021/04/11 06:15:37;;;;;;;5.43;4.80;;;5.80;99.90;;;;;;4992595;28;20179;-81
2021/04/11 06:18:06;;;;;;;6.33;5.57;;;5.90;99.90;;;;;;4992608;28;20223;-80
2021/04/11 06:20:34;;;;;;;7.43;6.63;;;;;;;;;;4976652;28;20187;-81
2021/04/11 06:23:18;;;;;;;7.37;6.63;;;5.90;99.90;;;;;;4989788;28;20644;-79
2021/04/11 06:25:57;;;;;;;7.43;6.67;;;;;;;;;;4988909;28;20696;-81
2021/04/11 06:28:36;;;;;;;6.57;5.90;;;;;;;;;;5009783;28;20640;-80
2021/04/11 06:31:03;;;;;;;7.67;6.43;;;5.90;99.90;;;;;;4990998;28;20180;-80
2021/04/11 06:33:29;;;;;;;8.37;6.77;;;5.90;99.90;;;;;;4975822;28;20218;-80
2021/04/11 06:36:00;;;;;;;7.57;6.37;;;6.00;99.90;;;;;;4975775;28;20284;-80
2021/04/11 06:38:28;;;;;;;7.63;6.67;;;5.80;99.90;;;;;;4976548;28;20172;-81
2021/04/11 06:41:23;;;;;;;8.33;7.47;;;5.80;99.90;;;;;;4976286;28;20223;-81
2021/04/11 06:43:51;;;;;;;10.37;8.17;;;;;;;;;;4990918;28;20306;-80
2021/04/11 06:46:22;;;;;;;10.47;8.97;;;5.90;99.90;;;;;;4992477;28;20330;-81
2021/04/11 06:49:00;;;;;;;11.30;9.10;;;;;;;;;;4962424;28;20609;-80
2021/04/11 06:51:33;;;;;;;11.93;9.63;;;;;;;;;;5005434;28;20234;-81
2021/04/11 06:54:16;;;;;;;11.00;8.60;;;5.70;99.90;;;;;;5005216;28;20739;-80
2021/04/11 06:56:51;;;;;;;12.80;9.10;;;5.70;99.90;;;;;;4992164;28;20199;-79
2021/04/11 06:59:33;;;;;;;10.57;8.63;;;5.70;99.90;;;;;;4990767;28;20187;-81
2021/04/11 07:02:02;;;;;;;12.47;9.97;;;5.70;99.90;;;;;;4975976;28;20194;-80
2021/04/11 07:04:33;;;;;;;13.90;9.80;;;5.80;99.90;;;;;;4993531;28;20184;-81
2021/04/11 07:07:23;;;;;;;13.80;10.00;;;5.80;99.90;;;;;;4992039;28;20223;-82
2021/04/11 07:09:51;;;;;;;12.67;10.47;;;;;;;;;;4976013;28;20648;-81
2021/04/11 07:12:37;;;;;;;11.03;9.23;;;;;;;;;;4991578;28;20182;-80
2021/04/11 07:15:15;;;;;;;13.77;10.13;;;;;;;;;;4993042;28;20264;-80
2021/04/11 07:17:54;;;;;;;13.47;9.93;;;5.70;99.90;;;;;;4991231;28;20208;-75
2021/04/11 07:20:58;;;;;;;11.93;9.97;;;5.70;99.90;;;;;;4989252;28;20191;-75
2021/04/11 07:23:47;;;;;;;12.37;9.90;;;5.60;99.90;;;;;;4968840;28;20203;-75
2021/04/11 07:26:53;;;;;;;11.37;9.80;;;5.50;99.90;;;;;;4973974;28;20283;-81
2021/04/11 07:29:45;;;;;;;13.53;10.13;;;5.60;99.90;;;;;;4987477;28;20278;-80
2021/04/11 07:32:29;;;;;;;11.00;9.00;;;5.60;99.90;;;;;;4966720;28;20246;-81
2021/04/11 07:35:16;;;;;;;12.73;8.10;;;5.60;99.90;;;;;;4990916;28;20202;-81
2021/04/11 07:38:03;;;;;;;10.80;8.17;;;5.60;99.90;;;;;;4984551;28;20208;-75
2021/04/11 07:40:53;;;;;;;9.07;7.80;;;5.50;99.90;;;;;;4991055;28;20724;-77
2021/04/11 07:43:30;;;;;;;10.20;7.90;;;5.50;99.90;;;;;;4992656;28;20187;-76
2021/04/11 07:46:28;;;;;;;12.03;8.33;;;5.60;99.90;;;;;;4991633;28;20187;-76
2021/04/11 07:49:15;;;;;;;8.47;7.37;;;5.60;99.90;;;;;;4991127;28;20195;-77
2021/04/11 07:52:00;;;;;;;10.67;7.13;;;5.60;99.90;;;;;;4991645;28;20528;-78
2021/04/11 07:54:44;;;;;;;8.07;6.70;;;5.60;99.90;;;;;;4972634;28;20204;-76
2021/04/11 07:57:33;;;;;;;9.30;7.67;;;5.50;99.90;;;;;;4985222;28;20199;-75
2021/04/11 08:00:13;;;;;;;9.90;7.30;;;5.60;99.90;;;;;;4977677;28;20693;-79
2021/04/11 08:03:16;;;;;;;9.37;7.73;;;5.60;99.90;;;;;;4989577;28;20222;-79
2021/04/11 08:06:02;;;;;;;9.13;7.33;;;5.50;99.90;;;;;;4972221;28;20623;-82
2021/04/11 08:08:39;;;;;;;8.47;7.00;;;5.50;99.90;;;;;;5011701;23;20262;-77
2021/04/11 08:11:23;;;;;;;7.33;6.53;;;5.60;99.90;;;;;;5007199;28;20170;-78
2021/04/11 08:14:07;;;;;;;9.27;6.60;;;5.70;99.90;;;;;;5009773;28;20202;-79
2021/04/11 08:16:45;;;;;;;6.37;5.20;;;5.70;99.90;;;;;;5011166;28;20669;-78
2021/04/11 08:19:32;;;;;;;5.03;4.53;;;5.70;99.90;;;;;;5012378;28;20167;-78
2021/04/11 08:22:35;;;;;;;5.33;4.83;;;5.90;99.90;;;;;;5012100;28;20729;-78
2021/04/11 08:25:09;;;;;;;4.90;4.30;;;5.90;99.90;;;;;;5012381;28;20221;-78
2021/04/11 08:27:50;;;;;;;5.03;4.37;;;6.00;99.90;;;;;;5011856;28;20196;-78
2021/04/11 08:30:25;;;;;;;5.37;4.53;;;6.00;99.90;;;;;;4998312;28;20178;-78
2021/04/11 08:33:02;;;;;;;4.67;4.13;;;6.00;99.90;;;;;;5014428;28;20179;-78
2021/04/11 08:36:01;;;;;;;5.63;4.20;;;6.00;99.90;;;;;;4998327;28;20560;-79
2021/04/11 08:38:31;;;;;;;5.23;4.73;;;6.00;99.90;;;;;;5017524;28;20203;-79
2021/04/11 08:41:20;;;;;;;6.07;4.30;;;6.00;99.90;;;;;;5014682;28;20183;-79
2021/04/11 08:44:22;;;;;;;4.40;3.97;;;5.80;99.90;;;;;;5020017;28;20172;-79
2021/04/11 08:47:10;;;;;;;5.20;4.30;;;5.60;99.90;;;;;;5019910;28;20241;-80
2021/04/11 08:49:39;;;;;;;4.37;3.80;;;5.50;99.90;;;;;;4996280;28;20247;-79
2021/04/11 08:52:29;;;;;;;4.67;4.00;;;5.50;99.90;;;;;;4998729;28;20188;-80
2021/04/11 08:55:11;;;;;;;6.37;4.40;;;5.30;99.90;;;;;;4989254;28;20924;-79
2021/04/11 08:57:38;;;;;;;4.83;4.30;;;5.20;99.90;;;;;;5019039;28;20203;-79
2021/04/11 09:00:47;;;;;;;5.37;4.17;;;5.10;99.90;;;;;;5005966;28;20254;-79
2021/04/11 09:03:23;;;;;;;5.33;4.83;;;5.20;99.90;;;;;;5017000;28;20179;-81
2021/04/11 09:06:17;;;;;;;4.40;4.00;;;5.30;99.90;;;;;;5014365;28;20615;-80
2021/04/11 09:09:00;;;;;;;5.23;3.73;;;5.40;99.90;;;;;;4993562;28;20262;-80
2021/04/11 09:11:39;;;;;;;5.00;3.90;;;4.10;99.90;;;;;;4995469;28;20169;-80
2021/04/11 09:14:33;;;;;;;5.13;3.90;;;5.40;99.90;;;;;;4994320;28;20188;-77
2021/04/11 09:17:17;;;;;;;5.00;3.90;;;5.40;99.90;;;;;;4996471;28;20738;-77
2021/04/11 09:20:10;;;;;;;4.47;3.80;;;5.10;99.90;;;;;;4995015;28;20187;-78
2021/04/11 09:23:09;;;;;;;4.43;3.90;;;5.10;99.90;;;;;;4995887;28;20678;-80
2021/04/11 09:25:35;;;;;;;4.87;3.67;;;5.10;99.90;;;;;;4996704;28;20186;-79
2021/04/11 09:28:41;;;;;;;3.33;3.03;;;5.10;99.90;;;;;;4978428;28;20672;-78
2021/04/11 09:31:22;;;;;;;3.27;2.90;;;4.90;99.90;;;;;;4994086;28;20187;-79
2021/04/11 09:34:07;;;;;;;4.13;3.50;;;5.00;99.90;;;;;;4993433;28;20290;-77
2021/04/11 09:36:48;;;;;;;3.80;3.23;;;5.10;99.90;;;;;;4997174;28;20639;-77
2021/04/11 09:39:51;;;;;;;3.77;3.10;;;5.10;99.90;;;;;;5000896;28;20164;-77
2021/04/11 09:42:54;;;;;;;4.30;2.67;;;5.00;99.90;;;;;;5015302;28;20163;-78
2021/04/11 09:45:51;;;;;;;2.87;2.43;;;5.10;99.90;;;;;;5013687;28;20175;-77
2021/04/11 09:48:36;;;;;;;2.80;2.30;;;5.00;99.90;;;;;;5013932;28;20199;-79
2021/04/11 09:51:13;;;;;;;2.43;1.93;;;5.00;99.90;;;;;;4997578;28;20710;-77
2021/04/11 09:53:54;;;;;;;2.33;1.97;;;5.00;99.90;;;;;;4994012;28;20190;-77
2021/04/11 09:56:26;;;;;;;3.07;2.30;;;4.90;99.90;;;;;;4994503;28;20638;-78
2021/04/11 09:59:20;;;;;;;2.97;2.10;;;5.00;99.90;;;;;;5014683;28;20229;-77
2021/04/11 10:02:00;;;;;;;2.53;1.87;;;5.10;99.90;;;;;;5013467;28;20160;-78
2021/04/11 10:04:38;;;;;;;2.43;2.10;;;5.10;99.90;;;;;;4981578;28;20179;-78
2021/04/11 10:07:14;;;;;;;3.00;2.07;;;5.10;99.90;;;;;;5013533;28;20218;-77
2021/04/11 10:09:48;;;;;;;2.00;1.80;;;5.10;99.90;;;;;;5012768;28;20175;-80
2021/04/11 10:12:45;;;;;;;1.93;1.70;;;5.10;99.90;;;;;;5015614;28;20179;-79
2021/04/11 10:15:19;;;;;;;2.07;1.87;;;5.00;99.90;;;;;;5014380;28;20254;-78
2021/04/11 10:18:20;;;;;;;2.00;1.80;;;5.00;99.90;;;;;;5013771;28;20209;-79
2021/04/11 10:21:05;;;;;;;1.87;1.73;;;5.10;99.90;;;;;;5012884;28;20631;-78
2021/04/11 10:24:03;;;;;;;2.60;1.93;;;4.90;99.90;;;;;;4996885;28;20170;-79
2021/04/11 10:26:35;;;;;;;2.57;2.13;;;5.00;99.90;;;;;;4996012;28;20676;-78
2021/04/11 10:29:21;;;;;;;2.97;2.37;;;5.20;99.90;;;;;;5014026;28;20184;-79
2021/04/11 10:32:13;;;;;;;2.77;1.90;;;5.40;99.90;;;;;;4998144;28;20562;-79
2021/04/11 10:34:43;;;;;;;2.30;2.10;;;5.70;99.90;;;;;;4993827;28;20206;-78
2021/04/11 10:37:18;;;;;;;2.77;2.00;;;5.80;99.90;;;;;;4977189;28;20195;-79
2021/04/11 10:39:46;;;;;;;2.33;1.80;;;5.80;99.90;;;;;;4991287;28;20601;-78
2021/04/11 10:42:26;;;;;;;1.97;1.77;;;5.50;99.90;;;;;;5014229;28;20662;-79
2021/04/11 10:45:09;;;;;;;1.90;1.80;;;5.50;99.90;;;;;;4997113;28;20550;-79
2021/04/11 10:48:22;;;;;;;2.33;2.00;;;5.50;99.90;;;;;;4997197;28;20250;-78
2021/04/11 10:51:05;;;;;;;2.17;1.97;;;5.50;99.90;;;;;;4994746;28;20214;-78
2021/04/11 10:53:57;;;;;;;2.53;1.67;;;5.40;99.90;;;;;;5010000;28;20188;-77
2021/04/11 10:56:44;;;;;;;2.17;1.70;;;5.40;99.90;;;;;;4994651;28;20270;-77
2021/04/11 10:59:55;;;;;;;2.07;1.87;;;5.50;99.90;;;;;;5010735;28;20182;-78
2021/04/11 11:02:58;;;;;;;2.27;2.07;;;5.50;99.90;;;;;;5011515;28;20176;-77
2021/04/11 11:05:53;;;;;;;2.03;1.90;;;5.70;99.90;;;;;;5013758;28;20677;-78
2021/04/11 11:08:31;;;;;;;2.13;1.87;;;5.80;99.90;;;;;;5013215;28;20690;-77
2021/04/11 11:11:52;;;;;;;3.33;1.80;;;5.80;99.90;;;;;;5018571;28;20643;-78
2021/04/11 11:14:54;;;;;;;2.93;1.90;;;5.80;99.90;;;;;;5014570;28;20188;-78
2021/04/11 11:17:29;;;;;;;2.30;1.60;;;6.00;99.90;;;;;;5014481;28;20645;-78
2021/04/11 11:20:32;;;;;;;1.83;1.40;;;5.90;99.90;;;;;;5010621;28;20170;-76
2021/04/11 11:23:00;;;;;;;1.40;1.30;;;5.80;99.90;;;;;;5013016;28;20314;-77
2021/04/11 11:25:29;;;;;;;1.63;1.40;;;5.70;99.90;;;;;;4993195;28;20176;-79
2021/04/11 11:28:14;;;;;;;2.50;1.40;;;5.60;99.90;;;;;;4991890;28;20278;-79
2021/04/11 11:30:48;;;;;;;3.43;1.80;;;5.40;99.90;;;;;;5002549;28;20175;-78
2021/04/11 11:33:22;;;;;;;2.63;1.73;;;5.40;99.90;;;;;;5011361;28;20183;-78
2021/04/11 11:36:03;;;;;;;1.90;1.30;;;5.50;99.90;;;;;;5012117;28;20167;-80
2021/04/11 11:38:37;;;;;;;1.83;1.70;;;5.50;99.90;;;;;;4993700;28;20232;-81
2021/04/11 11:41:17;;;;;;;3.27;1.60;;;5.50;99.90;;;;;;4995410;28;20712;-81
2021/04/11 11:44:07;;;;;;;2.13;1.70;;;5.50;99.90;;;;;;4990875;28;20172;-81
2021/04/11 11:46:38;;;;;;;3.00;1.57;;;5.60;99.90;;;;;;5003498;28;20188;-81
2021/04/11 11:49:14;;;;;;;5.07;1.70;;;5.60;99.90;;;;;;4994637;28;20171;-81
2021/04/11 11:51:55;;;;;;;1.60;1.50;;;5.80;99.90;;;;;;4996788;28;20176;-80
2021/04/11 11:54:35;;;;;;;2.90;1.73;;;5.70;99.90;;;;;;4995366;28;20215;-76
2021/04/11 11:57:06;;;;;;;1.60;1.33;;;5.60;99.90;;;;;;5010604;28;20678;-78
2021/04/11 11:59:44;;;;;;;2.90;1.70;;;5.50;99.90;;;;;;5016492;28;20604;-79
2021/04/11 12:02:22;;;;;;;2.30;1.60;;;5.30;99.90;;;;;;5011025;28;20274;-77
2021/04/11 12:05:00;;;;;;;3.07;1.67;;;5.30;99.90;;;;;;5012440;28;20171;-78
2021/04/11 12:07:30;;;;;;;2.97;1.57;;;5.10;99.90;;;;;;5010765;28;20322;-79
2021/04/11 12:10:23;;;;;;;3.03;1.73;;;5.20;99.90;;;;;;5012375;28;20567;-78
2021/04/11 12:12:54;;;;;;;4.80;1.93;;;;;;;;;;5010616;28;20175;-77
2021/04/11 12:15:24;;;;;;;2.80;1.97;;;;;;;;;;5027308;28;20218;-77
2021/04/11 12:18:19;;;;;;;2.43;1.97;;;5.30;99.90;;;;;;4996199;28;20255;-79
2021/04/11 12:21:15;;;;;;;5.40;1.80;;;5.60;99.90;;;;;;5009761;28;20174;-77
2021/04/11 12:24:13;;;;;;;3.83;1.50;;;5.60;99.90;;;;;;5006982;28;20179;-78
2021/04/11 12:26:52;;;;;;;2.90;1.60;;;5.60;99.90;;;;;;5012400;28;20603;-77
2021/04/11 12:29:22;;;;;;;3.73;1.50;;;5.50;99.90;;;;;;4996173;28;20247;-78
2021/04/11 12:32:11;;;;;;;2.47;1.90;;;5.50;99.90;;;;;;4979540;28;20261;-79
2021/04/11 12:38:08;;;;;;;3.13;1.60;;;5.60;99.90;;;;;;5006674;28;20264;-79
2021/04/11 12:40:42;;;;;;;2.03;1.50;;;5.60;99.90;;;;;;4990095;28;20168;-79
2021/04/11 12:43:17;;;;;;;2.03;1.80;;;5.50;99.90;;;;;;4993097;28;20164;-79
2021/04/11 12:46:05;;;;;;;2.60;1.30;;;5.50;99.90;;;;;;4993440;28;20170;-80
2021/04/11 12:52:03;;;;;;;3.23;2.07;;;5.50;99.90;;;;;;4994900;28;20176;-80
2021/04/11 12:54:43;;;;;;;4.23;2.10;;;5.60;99.90;;;;;;4980764;28;20192;-80
2021/04/11 12:57:26;;;;;;;5.20;2.10;;;5.70;99.90;;;;;;4993527;28;20563;-77
2021/04/11 13:00:01;;;;;;;4.73;2.27;;;5.80;99.90;;;;;;4993549;28;20239;-76
2021/04/11 13:02:47;;;;;;;2.20;1.50;;;5.90;99.90;;;;;;4993391;28;20152;-78
2021/04/11 13:05:32;;;;;;;2.07;1.50;;;5.90;99.90;;;;;;4975264;28;20585;-78
2021/04/11 13:08:16;;;;;;;3.67;2.10;;;5.80;99.90;;;;;;5008892;28;20237;-77
2021/04/11 13:11:13;;;;;;;4.27;1.83;;;5.90;99.90;;;;;;4997004;28;20172;-78
2021/04/11 13:13:43;;;;;;;4.33;1.97;;;6.00;99.90;;;;;;5011436;28;20582;-78
2021/04/11 13:16:34;;;;;;;3.67;1.70;;;6.00;99.90;;;;;;5012898;28;20168;-78
2021/04/11 13:19:13;;;;;;;3.93;1.47;;;6.10;99.90;;;;;;5015361;28;20225;-78
2021/04/11 13:21:38;;;;;;;2.57;1.60;;;6.10;99.90;;;;;;4998746;28;20190;-78
2021/04/11 13:24:23;;;;;;;3.27;1.60;;;6.00;99.90;;;;;;5021012;28;20176;-81
2021/04/11 13:27:19;;;;;;;3.60;2.00;;;5.90;99.90;;;;;;4989694;28;20230;-81
2021/04/11 13:30:01;;;;;;;2.50;1.63;;;5.90;99.90;;;;;;5024390;28;20186;-81
2021/04/11 13:32:52;;;;;;;4.07;1.67;;;6.00;99.90;;;;;;5006163;28;20265;-80
2021/04/11 13:35:29;;;;;;;3.97;1.70;;;6.00;99.90;;;;;;5021739;28;20364;-78
2021/04/11 13:38:02;;;;;;;3.10;1.70;;;6.20;99.90;;;;;;5014933;28;20777;-79
2021/04/11 13:40:29;;;;;;;4.60;1.80;;;6.40;99.90;;;;;;5030273;28;20178;-79
2021/04/11 13:43:13;;;;;;;2.87;1.60;;;6.70;99.90;;;;;;5013699;28;20187;-79
2021/04/11 13:45:44;;;;;;;2.40;1.67;;;7.10;99.90;;;;;;5015050;28;20163;-76
2021/04/11 13:48:30;;;;;;;3.37;1.63;;;7.30;99.90;;;;;;5029434;28;20215;-77
2021/04/11 13:51:13;;;;;;;3.47;1.83;;;7.60;99.90;;;;;;5029865;28;20168;-78
2021/04/11 13:53:57;;;;;;;2.80;1.83;;;7.70;99.90;;;;;;5014573;28;20196;-78
2021/04/11 13:56:46;;;;;;;3.53;1.90;;;7.70;99.90;;;;;;5015271;28;20531;-79
2021/04/11 13:59:38;;;;;;;3.70;1.70;;;7.60;99.90;;;;;;5011886;28;20164;-79
2021/04/11 14:02:30;;;;;;;3.03;1.60;;;7.20;99.90;;;;;;5008170;28;20699;-79
2021/04/11 14:05:13;;;;;;;1.93;1.57;;;6.90;99.90;;;;;;5029613;28;20183;-77
2021/04/11 14:10:17;;;;;;;2.03;1.30;;;6.50;99.90;;;;;;4945068;29;20232;-70